createdAt,value
2019-03-10T00:00:33.050Z,4.67
2019-03-10T00:03:01.926Z,3.77
2019-03-10T00:05:30.798Z,5.47
2019-03-10T00:08:00.622Z,4.78
2019-03-10T00:10:29.635Z,3.25
2019-03-10T00:12:58.494Z,8.08
2019-03-10T00:15:27.560Z,5.78
2019-03-10T00:17:56.391Z,2.85
2019-03-10T00:20:25.308Z,10.00
2019-03-10T00:22:54.225Z,4.00
2019-03-10T00:25:23.090Z,7.12
2019-03-10T00:27:51.960Z,7.95
2019-03-10T00:30:20.891Z,5.97
2019-03-10T00:32:49.841Z,4.55
2019-03-10T00:35:18.720Z,9.40
2019-03-10T00:37:47.652Z,6.28
2019-03-10T00:40:42.197Z,3.67
2019-03-10T00:43:41.209Z,6.12
2019-03-10T00:46:28.126Z,2.47
2019-03-10T00:49:16.345Z,3.77
2019-03-10T00:52:07.804Z,3.17
2019-03-10T00:54:36.676Z,3.92
2019-03-10T00:57:05.643Z,3.02
2019-03-10T00:59:34.571Z,4.42
2019-03-10T01:02:03.535Z,3.10
2019-03-10T01:04:32.897Z,5.28
2019-03-10T01:07:01.978Z,6.05
2019-03-10T01:09:30.886Z,8.15
2019-03-10T01:11:59.869Z,3.60
2019-03-10T01:14:28.794Z,3.37
2019-03-10T01:16:58.262Z,3.95
2019-03-10T01:19:28.239Z,6.10
2019-03-10T01:21:57.681Z,4.97
2019-03-10T01:24:26.557Z,1.45
2019-03-10T01:26:55.473Z,2.35
2019-03-10T01:29:24.621Z,6.28
2019-03-10T01:32:06.035Z,6.40
2019-03-10T01:34:55.891Z,5.97
2019-03-10T01:37:24.875Z,5.12
2019-03-10T01:39:54.006Z,3.98
2019-03-10T01:42:22.871Z,3.12
2019-03-10T01:44:51.895Z,7.35
2019-03-10T01:47:20.796Z,7.03
2019-03-10T01:49:49.702Z,3.20
2019-03-10T01:52:18.619Z,6.85
2019-03-10T01:54:47.494Z,4.53
2019-03-10T01:57:16.525Z,4.08
2019-03-10T01:59:45.711Z,7.90
2019-03-10T02:02:14.678Z,6.17
2019-03-10T02:04:43.557Z,1.80
2019-03-10T02:07:12.496Z,3.83
2019-03-10T02:09:41.607Z,5.22
2019-03-10T02:12:10.480Z,3.70
2019-03-10T02:14:39.410Z,2.20
2019-03-10T02:17:08.277Z,3.22
2019-03-10T02:19:37.292Z,5.75
2019-03-10T02:22:06.217Z,6.35
2019-03-10T02:24:35.094Z,7.85
2019-03-10T02:27:04.084Z,7.45
2019-03-10T02:29:33.666Z,3.30
2019-03-10T02:32:02.528Z,3.02
2019-03-10T02:34:32.693Z,4.35
2019-03-10T02:37:01.559Z,6.58
2019-03-10T02:39:30.427Z,4.28
2019-03-10T02:41:59.364Z,6.05
2019-03-10T02:44:28.235Z,9.78
2019-03-10T02:46:57.093Z,7.42
2019-03-10T02:49:26.011Z,4.97
2019-03-10T02:51:54.928Z,7.45
2019-03-10T02:54:23.797Z,3.90
2019-03-10T02:56:52.729Z,5.70
2019-03-10T02:59:21.588Z,7.35
2019-03-10T03:01:50.544Z,3.52
2019-03-10T03:04:19.437Z,2.55
2019-03-10T03:06:48.315Z,13.40
2019-03-10T03:09:17.221Z,7.85
2019-03-10T03:11:46.318Z,5.28
2019-03-10T03:14:15.204Z,9.45
2019-03-10T03:16:44.119Z,5.08
2019-03-10T03:19:13.024Z,7.15
2019-03-10T03:21:43.705Z,3.58
2019-03-10T03:24:12.551Z,3.17
2019-03-10T03:26:41.747Z,7.72
2019-03-10T03:29:10.715Z,3.02
2019-03-10T03:31:39.869Z,8.05
2019-03-10T03:34:08.745Z,6.95
2019-03-10T03:36:37.757Z,12.33
2019-03-10T03:39:21.445Z,1.98
2019-03-10T03:41:50.323Z,5.35
2019-03-10T03:44:19.183Z,6.33
2019-03-10T03:46:48.116Z,4.85
2019-03-10T03:49:17.087Z,3.02
2019-03-10T03:51:46.183Z,3.55
2019-03-10T03:54:15.070Z,4.78
2019-03-10T03:56:44.041Z,6.05
2019-03-10T03:59:12.960Z,7.40
2019-03-10T04:01:43.772Z,2.02
2019-03-10T04:04:12.648Z,6.25
2019-03-10T04:06:41.512Z,5.97
2019-03-10T04:09:10.433Z,5.35
2019-03-10T04:11:39.309Z,4.70
2019-03-10T04:14:08.172Z,5.47
2019-03-10T04:16:37.114Z,5.83
2019-03-10T04:19:05.993Z,5.65
2019-03-10T04:21:34.972Z,5.55
2019-03-10T04:24:03.888Z,3.33
2019-03-10T04:26:32.751Z,4.90
2019-03-10T04:29:01.635Z,5.05
2019-03-10T04:31:30.685Z,3.60
2019-03-10T04:33:59.606Z,2.27
2019-03-10T04:36:28.826Z,3.85
2019-03-10T04:38:57.797Z,5.12
2019-03-10T04:41:26.900Z,2.60
2019-03-10T04:43:55.780Z,6.72
2019-03-10T04:46:24.896Z,4.97
2019-03-10T04:48:53.769Z,3.77
2019-03-10T04:51:22.875Z,2.50
2019-03-10T04:53:51.813Z,6.22
2019-03-10T04:56:28.507Z,5.20
2019-03-10T04:58:57.427Z,3.60
2019-03-10T05:01:26.596Z,4.83
2019-03-10T05:03:55.473Z,5.08
2019-03-10T05:06:24.398Z,4.83
2019-03-10T05:08:53.264Z,1.05
2019-03-10T05:11:22.250Z,2.72
2019-03-10T05:13:51.189Z,6.72
2019-03-10T05:16:20.046Z,1.20
2019-03-10T05:18:48.977Z,4.53
2019-03-10T05:21:17.965Z,3.80
2019-03-10T05:23:46.824Z,3.05
2019-03-10T05:26:15.690Z,5.83
2019-03-10T05:28:45.308Z,2.70
2019-03-10T05:31:14.257Z,3.47
2019-03-10T05:33:43.190Z,4.90
2019-03-10T05:36:12.079Z,5.60
2019-03-10T05:38:41.013Z,4.95
2019-03-10T05:41:10.114Z,4.92
2019-03-10T05:43:38.996Z,7.80
2019-03-10T05:46:07.922Z,1.52
2019-03-10T05:48:37.320Z,2.72
2019-03-10T05:51:06.404Z,3.58
2019-03-10T05:53:35.273Z,3.00
2019-03-10T05:56:04.203Z,4.78
2019-03-10T05:58:35.124Z,2.72
2019-03-10T06:01:03.607Z,3.05
2019-03-10T06:03:32.515Z,4.75
2019-03-10T06:06:01.388Z,3.02
2019-03-10T06:08:30.252Z,1.95
2019-03-10T06:10:59.321Z,2.33
2019-03-10T06:13:28.179Z,3.25
2019-03-10T06:15:57.099Z,8.83
2019-03-10T06:18:25.968Z,6.17
2019-03-10T06:20:54.955Z,3.02
2019-03-10T06:23:23.927Z,2.83
2019-03-10T06:25:52.806Z,4.87
2019-03-10T06:28:21.668Z,3.40
2019-03-10T06:30:50.656Z,2.60
2019-03-10T06:33:19.517Z,2.95
2019-03-10T06:35:48.857Z,1.75
2019-03-10T06:38:18.093Z,3.92
2019-03-10T06:40:46.994Z,5.85
2019-03-10T06:43:15.918Z,3.47
2019-03-10T06:45:44.778Z,5.60
2019-03-10T06:48:13.654Z,2.60
2019-03-10T06:50:42.556Z,3.27
2019-03-10T06:53:11.427Z,2.67
2019-03-10T06:55:40.352Z,3.17
2019-03-10T06:58:09.224Z,1.65
2019-03-10T07:00:38.648Z,3.72
2019-03-10T07:03:07.581Z,2.45
2019-03-10T07:05:36.442Z,8.55
2019-03-10T07:08:05.314Z,6.58
2019-03-10T07:10:34.251Z,1.32
2019-03-10T07:13:03.141Z,2.17
2019-03-10T07:15:32.097Z,2.17
2019-03-10T07:18:01.012Z,3.02
2019-03-10T07:20:29.884Z,6.58
2019-03-10T07:22:58.748Z,2.90
2019-03-10T07:25:27.670Z,4.47
2019-03-10T07:28:10.044Z,3.08
2019-03-10T07:30:40.723Z,5.28
2019-03-10T07:33:13.984Z,4.55
2019-03-10T07:36:02.978Z,3.55
2019-03-10T07:38:42.338Z,5.37
2019-03-10T07:41:12.880Z,2.35
2019-03-10T07:43:43.328Z,4.50
2019-03-10T07:46:13.903Z,1.62
2019-03-10T07:48:50.056Z,5.70
2019-03-10T07:51:23.463Z,5.97
2019-03-10T07:54:10.290Z,2.75
2019-03-10T07:56:55.726Z,5.75
2019-03-10T07:59:26.289Z,3.60
2019-03-10T08:01:56.728Z,6.00
2019-03-10T08:04:45.536Z,4.37
2019-03-10T08:07:15.976Z,6.97
2019-03-10T08:10:04.537Z,6.78
2019-03-10T08:12:44.220Z,3.85
2019-03-10T08:15:23.969Z,4.95
2019-03-10T08:17:54.407Z,2.33
2019-03-10T08:20:24.879Z,4.90
2019-03-10T08:23:10.476Z,3.42
2019-03-10T08:25:46.947Z,4.50
2019-03-10T08:28:17.537Z,4.47
2019-03-10T08:30:48.200Z,5.50
2019-03-10T08:33:22.028Z,1.95
2019-03-10T08:35:55.272Z,7.55
2019-03-10T08:38:31.432Z,3.25
2019-03-10T08:41:22.186Z,4.20
2019-03-10T08:43:58.411Z,2.30
2019-03-10T08:46:41.058Z,1.95
2019-03-10T08:49:14.683Z,3.67
2019-03-10T08:51:54.870Z,2.95
2019-03-10T08:54:34.252Z,1.40
2019-03-10T08:57:19.777Z,3.40
2019-03-10T08:59:50.380Z,1.82
2019-03-10T09:02:36.805Z,5.55
2019-03-10T09:05:11.477Z,5.92
2019-03-10T09:07:51.108Z,3.90
2019-03-10T09:10:24.446Z,4.37
2019-03-10T09:12:55.014Z,6.60
2019-03-10T09:15:25.448Z,4.67
2019-03-10T09:18:04.631Z,4.47
2019-03-10T09:20:51.284Z,2.12
2019-03-10T09:23:21.986Z,5.28
2019-03-10T09:26:01.438Z,4.25
2019-03-10T09:28:35.039Z,4.53
2019-03-10T09:31:08.659Z,8.05
2019-03-10T09:33:44.647Z,8.05
2019-03-10T09:36:15.619Z,2.92
2019-03-10T09:38:52.089Z,6.17
2019-03-10T09:41:31.593Z,6.85
2019-03-10T09:44:04.983Z,2.85
2019-03-10T09:46:50.540Z,6.15
2019-03-10T09:49:32.967Z,4.42
2019-03-10T09:52:21.198Z,3.00
2019-03-10T09:54:54.541Z,6.28
2019-03-10T09:57:41.903Z,3.10
2019-03-10T10:00:16.673Z,4.60
2019-03-10T10:02:56.425Z,2.80
2019-03-10T10:05:33.097Z,5.65
2019-03-10T10:08:09.767Z,3.75
2019-03-10T10:10:42.965Z,5.15
2019-03-10T10:13:22.431Z,9.05
2019-03-10T10:16:07.882Z,5.58
2019-03-10T10:18:44.408Z,2.98
2019-03-10T10:21:14.869Z,3.72
2019-03-10T10:23:45.304Z,3.80
2019-03-10T10:26:22.241Z,3.90
2019-03-10T10:29:09.072Z,3.65
2019-03-10T10:31:39.768Z,6.85
2019-03-10T10:34:12.729Z,6.20
2019-03-10T10:36:52.395Z,7.87
2019-03-10T10:39:22.898Z,8.95
2019-03-10T10:41:56.099Z,9.00
2019-03-10T10:44:43.312Z,7.28
2019-03-10T10:47:30.838Z,13.10
2019-03-10T10:50:01.381Z,8.65
2019-03-10T10:52:31.837Z,5.62
2019-03-10T10:55:02.339Z,7.17
2019-03-10T10:57:32.879Z,8.83
2019-03-10T11:00:12.377Z,7.03
2019-03-10T11:02:45.562Z,7.50
2019-03-10T11:05:21.559Z,7.37
2019-03-10T11:07:55.096Z,8.20
2019-03-10T11:10:42.074Z,8.35
2019-03-10T11:13:12.710Z,11.95
2019-03-10T11:15:46.208Z,9.15
2019-03-10T11:18:28.634Z,5.75
2019-03-10T11:21:09.507Z,14.13
2019-03-10T11:23:45.748Z,7.45
2019-03-10T11:26:16.191Z,10.70
2019-03-10T11:29:02.706Z,13.90
2019-03-10T11:31:43.809Z,9.25
2019-03-10T11:34:17.028Z,5.42
2019-03-10T11:37:03.670Z,11.20
2019-03-10T11:39:46.434Z,13.72
2019-03-10T11:42:33.274Z,11.65
2019-03-10T11:45:09.766Z,12.85
2019-03-10T11:47:46.356Z,7.25
2019-03-10T11:50:22.986Z,8.88
2019-03-10T11:52:58.910Z,6.55
2019-03-10T11:55:32.418Z,12.53
2019-03-10T11:58:19.422Z,10.35
2019-03-10T12:00:59.432Z,8.85
2019-03-10T12:03:32.665Z,6.95
2019-03-10T12:06:06.284Z,10.10
2019-03-10T12:08:42.437Z,9.08
2019-03-10T12:11:11.518Z,8.93
2019-03-10T12:13:40.404Z,9.18
2019-03-10T12:16:09.285Z,6.85
2019-03-10T12:18:38.222Z,8.38
2019-03-10T12:21:07.098Z,8.83
2019-03-10T12:23:36.002Z,5.42
2019-03-10T12:26:05.272Z,4.12
2019-03-10T12:28:34.157Z,4.35
2019-03-10T12:31:03.132Z,5.85
2019-03-10T12:33:32.169Z,3.85
2019-03-10T12:36:01.040Z,4.05
2019-03-10T12:38:29.975Z,6.97
2019-03-10T12:40:58.864Z,10.80
2019-03-10T12:43:27.750Z,6.17
2019-03-10T12:45:56.658Z,7.67
2019-03-10T12:48:25.921Z,6.80
2019-03-10T12:50:54.770Z,5.28
2019-03-10T12:53:23.693Z,8.23
2019-03-10T12:55:52.551Z,6.95
2019-03-10T12:58:21.432Z,8.75
2019-03-10T13:00:50.510Z,4.72
2019-03-10T13:03:19.463Z,8.43
2019-03-10T13:05:48.470Z,7.17
2019-03-10T13:08:17.740Z,4.42
2019-03-10T13:10:47.382Z,3.75
2019-03-10T13:13:16.387Z,4.50
2019-03-10T13:15:45.434Z,8.30
2019-03-10T13:18:14.384Z,2.70
2019-03-10T13:20:43.333Z,3.67
2019-03-10T13:23:12.259Z,5.50
2019-03-10T13:25:41.263Z,3.25
2019-03-10T13:28:10.207Z,7.80
2019-03-10T13:30:39.396Z,4.83
2019-03-10T13:33:08.374Z,6.08
2019-03-10T13:35:37.582Z,5.92
2019-03-10T13:38:06.661Z,3.67
2019-03-10T13:40:35.739Z,3.02
2019-03-10T13:43:04.738Z,4.05
2019-03-10T13:45:33.601Z,3.25
2019-03-10T13:48:02.465Z,4.58
2019-03-10T13:50:31.805Z,2.55
2019-03-10T13:53:00.741Z,3.30
2019-03-10T13:55:29.803Z,2.95
2019-03-10T13:57:58.699Z,1.98
2019-03-10T14:00:27.822Z,4.12
2019-03-10T14:02:56.727Z,1.30
2019-03-10T14:05:25.766Z,2.25
2019-03-10T14:07:54.844Z,2.12
2019-03-10T14:10:23.894Z,3.08
2019-03-10T14:12:52.924Z,1.92
2019-03-10T14:15:21.942Z,3.80
2019-03-10T14:17:50.904Z,2.12
2019-03-10T14:20:19.971Z,1.60
2019-03-10T14:22:48.905Z,4.85
2019-03-10T14:25:17.768Z,1.15
2019-03-10T14:27:48.499Z,1.98
2019-03-10T14:30:19.455Z,1.20
2019-03-10T14:32:48.417Z,1.92
2019-03-10T14:35:17.440Z,1.22
2019-03-10T14:37:46.388Z,1.30
2019-03-10T14:40:17.681Z,0.98
2019-03-10T14:42:46.658Z,1.07
2019-03-10T14:45:17.801Z,1.32
2019-03-10T14:47:46.692Z,1.87
2019-03-10T14:50:17.789Z,1.12
2019-03-10T14:52:47.133Z,0.60
2019-03-10T14:55:21.492Z,0.68
2019-03-10T14:57:50.405Z,1.12
2019-03-10T15:00:25.029Z,1.12
2019-03-10T15:02:54.235Z,0.88
2019-03-10T15:05:23.358Z,1.85
2019-03-10T15:07:52.300Z,0.80
2019-03-10T15:10:21.557Z,1.27
2019-03-10T15:12:50.539Z,0.90
2019-03-10T15:15:22.821Z,0.98
2019-03-10T15:17:51.787Z,2.05
2019-03-10T15:20:21.996Z,1.37
2019-03-10T15:22:51.102Z,1.55
2019-03-10T15:25:25.153Z,1.45
2019-03-10T15:27:54.685Z,2.37
2019-03-10T15:30:26.182Z,0.68
2019-03-10T15:32:55.569Z,3.05
2019-03-10T15:35:24.868Z,1.37
2019-03-10T15:37:54.018Z,1.02
2019-03-10T15:40:23.121Z,1.90
2019-03-10T15:42:52.591Z,1.27
2019-03-10T15:45:21.881Z,0.82
2019-03-10T15:47:50.813Z,0.75
2019-03-10T15:50:28.297Z,0.55
2019-03-10T15:52:57.774Z,1.05
2019-03-10T15:55:27.142Z,0.62
2019-03-10T15:57:56.106Z,1.20
2019-03-10T16:00:28.635Z,0.50
2019-03-10T16:02:57.625Z,0.55
2019-03-10T16:05:26.924Z,0.78
2019-03-10T16:07:56.269Z,1.20
2019-03-10T16:10:25.455Z,0.50
2019-03-10T16:12:54.483Z,1.65
2019-03-10T16:15:25.354Z,1.20
2019-03-10T16:17:54.448Z,0.72
2019-03-10T16:20:23.674Z,1.37
2019-03-10T16:22:55.112Z,0.85
2019-03-10T16:25:23.276Z,1.27
2019-03-10T16:27:52.226Z,1.55
2019-03-10T16:30:26.311Z,1.42
2019-03-10T16:32:55.218Z,0.98
2019-03-10T16:35:24.202Z,4.30
2019-03-10T16:37:53.245Z,2.08
2019-03-10T16:40:22.954Z,1.15
2019-03-10T16:42:52.558Z,1.60
2019-03-10T16:45:25.938Z,1.00
2019-03-10T16:47:57.330Z,1.55
2019-03-10T16:50:29.831Z,1.17
2019-03-10T16:52:58.796Z,0.80
2019-03-10T16:55:27.748Z,0.90
2019-03-10T16:57:56.610Z,1.10
2019-03-10T17:00:25.725Z,1.62
2019-03-10T17:02:54.662Z,2.77
2019-03-10T17:05:24.131Z,2.45
2019-03-10T17:07:53.718Z,0.60
2019-03-10T17:10:27.310Z,0.80
2019-03-10T17:12:56.275Z,1.00
2019-03-10T17:15:26.638Z,1.52
2019-03-10T17:17:55.604Z,0.93
2019-03-10T17:20:24.739Z,0.72
2019-03-10T17:22:54.553Z,0.60
2019-03-10T17:25:23.454Z,0.62
2019-03-10T17:27:52.335Z,0.50
2019-03-10T17:30:22.591Z,1.82
2019-03-10T17:32:51.562Z,1.20
2019-03-10T17:35:21.418Z,2.00
2019-03-10T17:37:51.837Z,1.45
2019-03-10T17:40:25.881Z,2.02
2019-03-10T17:42:54.788Z,0.93
2019-03-10T17:45:25.233Z,1.30
2019-03-10T17:47:54.147Z,0.50
2019-03-10T17:50:23.094Z,1.10
2019-03-10T17:52:52.474Z,1.70
2019-03-10T17:55:25.524Z,2.20
2019-03-10T17:57:54.394Z,1.25
2019-03-10T18:00:24.862Z,0.55
2019-03-10T18:02:53.819Z,1.35
2019-03-10T18:05:23.086Z,1.50
2019-03-10T18:07:52.266Z,1.02
2019-03-10T18:10:22.214Z,1.17
2019-03-10T18:12:51.208Z,1.20
2019-03-10T18:15:20.281Z,0.50
2019-03-10T18:17:49.272Z,1.37
2019-03-10T18:20:22.812Z,0.70
2019-03-10T18:22:51.701Z,0.60
2019-03-10T18:25:20.651Z,0.47
2019-03-10T18:27:49.631Z,0.40
2019-03-10T18:30:21.065Z,0.50
2019-03-10T18:32:53.024Z,0.50
2019-03-10T18:35:22.081Z,0.40
2019-03-10T18:37:51.000Z,1.67
2019-03-10T18:40:22.091Z,0.68
2019-03-10T18:42:51.166Z,0.62
2019-03-10T18:45:21.629Z,0.57
2019-03-10T18:47:50.570Z,1.20
2019-03-10T18:50:24.750Z,0.40
2019-03-10T18:52:54.215Z,0.40
2019-03-10T18:55:23.791Z,0.47
2019-03-10T18:57:52.672Z,0.50
2019-03-10T19:00:30.110Z,0.98
2019-03-10T19:02:59.000Z,1.05
2019-03-10T19:05:27.927Z,0.50
2019-03-10T19:07:56.863Z,0.40
2019-03-10T19:10:25.914Z,0.50
2019-03-10T19:12:54.842Z,4.08
2019-03-10T19:15:29.689Z,1.42
2019-03-10T19:20:29.060Z,2.08
2019-03-10T19:22:58.256Z,0.80
2019-03-10T19:25:27.136Z,0.90
2019-03-10T19:27:55.992Z,0.70
2019-03-10T19:30:25.622Z,0.80
2019-03-10T19:32:54.535Z,2.65
2019-03-10T19:35:23.399Z,0.60
2019-03-10T19:37:52.310Z,1.10
2019-03-10T19:40:22.912Z,0.78
2019-03-10T19:42:51.782Z,0.70
2019-03-10T19:45:22.266Z,0.68
2019-03-10T19:47:51.166Z,0.50
2019-03-10T19:50:30.962Z,0.60
2019-03-10T19:53:00.405Z,3.20
2019-03-10T19:55:29.274Z,1.20
2019-03-10T19:57:58.807Z,2.00
2019-03-10T20:00:28.140Z,0.82
2019-03-10T20:02:57.418Z,0.70
2019-03-10T20:05:26.734Z,0.70
2019-03-10T20:07:56.547Z,0.98
2019-03-10T20:10:25.953Z,0.98
2019-03-10T20:12:55.864Z,0.55
2019-03-10T20:15:26.303Z,0.78
2019-03-10T20:17:55.222Z,2.90
2019-03-10T20:20:26.721Z,0.90
2019-03-10T20:22:56.746Z,0.47
2019-03-10T20:25:25.760Z,0.82
2019-03-10T20:27:55.451Z,0.60
2019-03-10T20:30:26.034Z,1.57
2019-03-10T20:32:54.958Z,0.82
2019-03-10T20:35:24.054Z,0.70
2019-03-10T20:37:52.906Z,1.00
2019-03-10T20:40:24.403Z,0.60
2019-03-10T20:42:55.196Z,1.35
2019-03-10T20:45:24.733Z,1.45
2019-03-10T20:47:56.292Z,0.50
2019-03-10T20:50:24.923Z,0.50
2019-03-10T20:52:53.823Z,0.50
2019-03-10T20:55:22.818Z,0.50
2019-03-10T20:57:51.766Z,0.57
2019-03-10T21:00:25.076Z,0.60
2019-03-10T21:02:53.940Z,2.05
2019-03-10T21:05:22.916Z,1.95
2019-03-10T21:07:51.787Z,0.85
2019-03-10T21:10:22.867Z,0.80
2019-03-10T21:12:51.799Z,1.62
2019-03-10T21:15:22.069Z,1.02
2019-03-10T21:17:50.956Z,1.65
2019-03-10T21:20:25.061Z,0.50
2019-03-10T21:22:53.943Z,0.50
2019-03-10T21:25:33.040Z,0.55
2019-03-10T21:28:01.913Z,0.98
2019-03-10T21:30:35.078Z,0.60
2019-03-10T21:33:04.003Z,0.50
2019-03-10T21:35:33.505Z,0.50
2019-03-10T21:38:02.850Z,0.70
2019-03-10T21:40:33.282Z,0.60
2019-03-10T21:43:02.337Z,0.80
2019-03-10T21:45:31.409Z,0.53
2019-03-10T21:48:00.673Z,0.85
2019-03-10T21:50:29.661Z,1.52
2019-03-10T21:52:58.550Z,0.50
2019-03-10T21:55:27.442Z,0.50
2019-03-10T21:57:56.368Z,0.55
2019-03-10T22:00:25.261Z,0.42
2019-03-10T22:02:54.116Z,0.42
2019-03-10T22:05:23.086Z,0.42
2019-03-10T22:07:51.978Z,0.47
2019-03-10T22:10:27.659Z,0.65
2019-03-10T22:12:53.418Z,0.40
2019-03-10T22:15:22.454Z,0.50
2019-03-10T22:17:51.348Z,0.40
2019-03-10T22:20:20.915Z,0.50
2019-03-10T22:22:50.301Z,0.68
2019-03-10T22:25:19.921Z,0.50
2019-03-10T22:27:48.784Z,0.55
2019-03-10T22:30:20.829Z,0.98
2019-03-10T22:32:49.918Z,0.50
2019-03-10T22:35:19.661Z,0.70
2019-03-10T22:37:48.540Z,0.90
2019-03-10T22:40:20.389Z,0.50
2019-03-10T22:42:49.277Z,0.50
2019-03-10T22:45:19.111Z,0.50
2019-03-10T22:47:47.990Z,0.57
2019-03-10T22:50:17.516Z,1.17
2019-03-10T22:52:46.869Z,0.50
2019-03-10T22:55:16.247Z,0.40
2019-03-10T22:57:45.129Z,0.47
2019-03-10T23:00:39.569Z,1.10
2019-03-10T23:03:08.485Z,0.53
2019-03-10T23:05:37.363Z,1.12
2019-03-10T23:08:06.218Z,0.60
2019-03-10T23:10:35.213Z,1.17
2019-03-10T23:13:04.099Z,0.93
2019-03-10T23:15:33.445Z,3.25
2019-03-10T23:18:02.402Z,1.22
2019-03-10T23:20:31.276Z,1.27
2019-03-10T23:23:00.334Z,0.93
2019-03-10T23:25:29.235Z,0.75
2019-03-10T23:27:58.092Z,1.82
2019-03-10T23:30:27.139Z,1.45
2019-03-10T23:32:56.396Z,2.15
2019-03-10T23:35:25.369Z,1.98
2019-03-10T23:37:54.278Z,1.50
2019-03-10T23:40:23.390Z,0.60
2019-03-10T23:42:52.277Z,0.72
2019-03-10T23:45:21.259Z,0.82
2019-03-10T23:47:50.244Z,0.65
2019-03-10T23:50:19.576Z,0.65
2019-03-10T23:52:48.464Z,1.05
2019-03-10T23:55:17.602Z,2.10
2019-03-10T23:57:47.492Z,1.60
